Time;durP1;ratioP1;P1;durP2;ratioP2;P2;SDS_P1;SDS_P2;PMS_P1;PMS_P2;Temp;Humidity;BMP_temperature;BMP_pressure;BME280_temperature;BME280_humidity;BME280_pressure;Samples;Min_cycle;Max_cycle;Signal;HPM_P1;HPM_P2
2024/03/04 00:00:40;;;;;;;8.75;7.95;;;;;;;;;;5058487;28;20509;-82
2024/03/04 00:03:07;;;;;;;9.13;8.32;;;;;;;;;;5058031;28;20854;-82
2024/03/04 00:05:35;;;;;;;9.25;8.45;;;;;;;;;;5058740;28;20378;-82
2024/03/04 00:08:02;;;;;;;9.05;8.15;;;;;;;;;;5058700;28;20819;-82
2024/03/04 00:10:29;;;;;;;8.57;7.82;;;;;;;;;;5058642;28;20782;-82
2024/03/04 00:12:55;;;;;;;8.60;7.90;;;;;;;;;;5058635;28;20378;-83
2024/03/04 00:15:23;;;;;;;8.80;8.07;;;;;;;;;;5058667;28;20391;-83
2024/03/04 00:17:50;;;;;;;8.82;8.02;;;;;;;;;;5058371;28;20378;-83
2024/03/04 00:20:16;;;;;;;9.18;8.38;;;;;;;;;;5058202;28;20378;-82
2024/03/04 00:22:46;;;;;;;9.05;8.05;;;;;;;;;;5054469;28;20384;-83
2024/03/04 00:25:18;;;;;;;8.30;7.50;;;;;;;;;;5037985;28;20383;-82
2024/03/04 00:27:45;;;;;;;8.52;7.82;;;;;;;;;;5038003;28;20378;-82
2024/03/04 00:30:12;;;;;;;9.07;8.32;;;;;;;;;;5038219;28;20871;-82
2024/03/04 00:32:38;;;;;;;8.55;7.70;;;;;;;;;;5048066;28;20830;-83
2024/03/04 00:35:09;;;;;;;8.48;7.72;;;;;;;;;;5058447;28;20381;-83
2024/03/04 00:37:35;;;;;;;8.30;7.60;;;;;;;;;;5058216;28;20382;-83
2024/03/04 00:40:05;;;;;;;7.55;6.95;;;;;;;;;;5058224;28;20381;-83
2024/03/04 00:42:32;;;;;;;8.73;8.02;;;;;;;;;;5057957;28;20474;-82
2024/03/04 00:44:58;;;;;;;9.02;8.13;;;;;;;;;;5057763;28;20385;-83
2024/03/04 00:47:24;;;;;;;9.15;8.38;;;;;;;;;;5057658;28;20775;-82
2024/03/04 00:49:50;;;;;;;8.50;7.80;;;;;;;;;;5058088;28;20409;-82
2024/03/04 00:52:17;;;;;;;9.25;8.43;;;;;;;;;;5057354;28;20388;-83
2024/03/04 00:54:43;;;;;;;9.17;8.37;;;;;;;;;;5057693;28;20374;-83
2024/03/04 00:57:09;;;;;;;8.85;8.05;;;;;;;;;;5057106;28;20495;-83
2024/03/04 00:59:37;;;;;;;8.70;8.00;;;;;;;;;;5057227;28;20385;-82
2024/03/04 01:02:04;;;;;;;9.30;8.40;;;;;;;;;;5056871;28;20413;-83
2024/03/04 01:04:30;;;;;;;9.00;8.15;;;;;;;;;;5057038;28;20404;-83
2024/03/04 01:06:56;;;;;;;9.00;8.20;;;;;;;;;;5057356;28;20378;-83
2024/03/04 01:09:22;;;;;;;8.70;8.00;;;;;;;;;;5057381;28;20787;-83
2024/03/04 01:11:48;;;;;;;9.70;8.88;;;;;;;;;;5057626;28;20901;-83
2024/03/04 01:14:14;;;;;;;9.63;8.83;;;;;;;;;;5057361;28;20433;-83
2024/03/04 01:16:43;;;;;;;9.50;8.70;;;;;;;;;;5057683;28;20381;-83
2024/03/04 01:19:10;;;;;;;8.93;7.97;;;;;;;;;;5057484;28;20385;-83
2024/03/04 01:21:38;;;;;;;8.88;8.07;;;;;;;;;;5056835;28;20397;-83
2024/03/04 01:24:04;;;;;;;9.20;8.30;;;;;;;;;;5057064;28;20465;-83
2024/03/04 01:26:30;;;;;;;9.15;8.25;;;;;;;;;;5057100;28;20915;-83
2024/03/04 01:28:56;;;;;;;9.97;9.00;;;;;;;;;;5056661;28;20400;-83
2024/03/04 01:31:22;;;;;;;9.75;8.85;;;;;;;;;;5057036;28;20385;-83
2024/03/04 01:33:49;;;;;;;9.38;8.57;;;;;;;;;;5057346;28;20397;-83
2024/03/04 01:36:15;;;;;;;9.90;8.95;;;;;;;;;;5057003;28;20874;-83
2024/03/04 01:38:41;;;;;;;8.90;8.00;;;;;;;;;;5056757;28;20381;-83
2024/03/04 01:41:07;;;;;;;9.52;8.65;;;;;;;;;;5057173;28;20465;-84
2024/03/04 01:43:34;;;;;;;9.93;9.00;;;;;;;;;;5057122;28;20369;-83
2024/03/04 01:45:59;;;;;;;10.23;9.32;;;;;;;;;;5057299;28;20373;-83
2024/03/04 01:48:26;;;;;;;11.27;10.18;;;;;;;;;;5052804;28;20435;-83
2024/03/04 01:50:54;;;;;;;11.30;10.15;;;;;;;;;;5056770;28;20482;-83
2024/03/04 01:53:20;;;;;;;10.70;9.70;;;;;;;;;;5056962;28;20774;-83
2024/03/04 01:55:50;;;;;;;11.02;10.02;;;;;;;;;;5056924;28;20421;-83
2024/03/04 01:58:17;;;;;;;10.20;9.13;;;;;;;;;;5056636;28;20389;-83
2024/03/04 02:00:44;;;;;;;10.10;9.20;;;;;;;;;;5056375;28;20942;-83
2024/03/04 02:03:15;;;;;;;10.52;9.43;;;;;;;;;;5056028;28;20901;-83
2024/03/04 02:05:41;;;;;;;10.30;9.30;;;;;;;;;;5056193;28;20370;-83
2024/03/04 02:08:07;;;;;;;9.53;8.63;;;;;;;;;;5056186;28;20431;-83
2024/03/04 02:10:33;;;;;;;9.82;9.00;;;;;;;;;;5056885;28;20377;-83
2024/03/04 02:12:59;;;;;;;9.83;9.00;;;;;;;;;;5055984;28;20914;-83
2024/03/04 02:15:25;;;;;;;9.88;9.07;;;;;;;;;;5055303;28;20389;-83
2024/03/04 02:17:51;;;;;;;9.30;8.60;;;;;;;;;;5055588;28;20430;-83
2024/03/04 02:20:18;;;;;;;9.27;8.48;;;;;;;;;;5056035;28;20943;-83
2024/03/04 02:22:44;;;;;;;8.95;8.15;;;;;;;;;;5055459;28;20416;-83
2024/03/04 02:25:14;;;;;;;8.88;8.07;;;;;;;;;;5056059;28;20422;-83
2024/03/04 02:27:42;;;;;;;9.30;8.40;;;;;;;;;;5056116;28;20385;-83
2024/03/04 02:30:08;;;;;;;8.63;7.83;;;;;;;;;;5054023;28;20365;-83
2024/03/04 02:32:35;;;;;;;9.60;8.70;;;;;;;;;;5055365;28;20476;-83
2024/03/04 02:35:05;;;;;;;9.25;8.40;;;;;;;;;;5055574;28;20374;-83
2024/03/04 02:37:34;;;;;;;9.10;8.30;;;;;;;;;;5055339;28;20382;-83
2024/03/04 02:40:01;;;;;;;9.63;8.63;;;;;;;;;;5055067;28;20396;-83
2024/03/04 02:42:27;;;;;;;9.68;8.80;;;;;;;;;;5053169;28;20405;-83
2024/03/04 02:44:53;;;;;;;9.65;8.75;;;;;;;;;;5055291;28;20427;-83
2024/03/04 02:47:19;;;;;;;9.90;9.00;;;;;;;;;;5055023;28;20385;-83
2024/03/04 02:49:45;;;;;;;10.30;9.35;;;;;;;;;;5054966;28;20447;-83
2024/03/04 02:52:11;;;;;;;9.52;8.63;;;;;;;;;;5054985;28;20401;-82
2024/03/04 02:54:37;;;;;;;8.93;8.13;;;;;;;;;;5055191;28;20385;-83
2024/03/04 02:57:04;;;;;;;9.18;8.32;;;;;;;;;;5054650;28;20384;-83
2024/03/04 02:59:30;;;;;;;8.80;8.00;;;;;;;;;;5054734;28;20389;-85
2024/03/04 03:01:56;;;;;;;9.40;8.50;;;;;;;;;;5048629;28;20560;-85
2024/03/04 03:04:24;;;;;;;8.68;7.78;;;;;;;;;;5048988;28;20427;-85
2024/03/04 03:06:50;;;;;;;8.05;7.35;;;;;;;;;;5048541;28;20385;-83
2024/03/04 03:09:17;;;;;;;8.88;8.07;;;;;;;;;;5054921;28;20378;-82
2024/03/04 03:11:43;;;;;;;8.70;7.90;;;;;;;;;;5052597;28;20404;-83
2024/03/04 03:14:09;;;;;;;7.78;7.07;;;;;;;;;;5054561;28;20751;-84
2024/03/04 03:16:35;;;;;;;7.30;6.67;;;;;;;;;;5053245;28;20401;-85
2024/03/04 03:19:01;;;;;;;8.02;7.25;;;;;;;;;;5053457;28;20423;-83
2024/03/04 03:21:27;;;;;;;7.68;7.07;;;;;;;;;;5054566;28;20397;-85
2024/03/04 03:23:54;;;;;;;8.52;7.82;;;;;;;;;;5054712;28;20377;-85
2024/03/04 03:26:20;;;;;;;7.73;7.07;;;;;;;;;;5055703;28;20435;-83
2024/03/04 03:28:46;;;;;;;8.50;7.70;;;;;;;;;;5058684;28;20377;-83
2024/03/04 03:31:12;;;;;;;8.38;7.50;;;;;;;;;;5060020;28;20458;-83
2024/03/04 03:33:38;;;;;;;8.75;8.02;;;;;;;;;;5060299;28;20411;-83
2024/03/04 03:36:05;;;;;;;8.55;7.75;;;;;;;;;;5060276;28;20385;-83
2024/03/04 03:38:33;;;;;;;8.55;7.85;;;;;;;;;;5061716;28;20392;-83
2024/03/04 03:40:59;;;;;;;8.82;7.95;;;;;;;;;;5060131;28;20483;-83
2024/03/04 03:43:25;;;;;;;8.43;7.57;;;;;;;;;;5061076;28;20421;-83
2024/03/04 03:45:51;;;;;;;8.07;7.38;;;;;;;;;;5045917;28;20449;-83
2024/03/04 03:48:18;;;;;;;7.90;7.20;;;;;;;;;;5041443;28;20400;-83
2024/03/04 03:50:48;;;;;;;9.02;8.13;;;;;;;;;;5040048;28;20415;-83
2024/03/04 03:53:14;;;;;;;8.95;8.15;;;;;;;;;;5039899;28;20466;-83
2024/03/04 03:55:40;;;;;;;8.60;7.80;;;;;;;;;;5040036;28;20379;-83
2024/03/04 03:58:09;;;;;;;8.52;7.72;;;;;;;;;;5038791;28;20390;-82
2024/03/04 04:00:36;;;;;;;7.88;7.18;;;;;;;;;;5039279;28;20380;-83
2024/03/04 04:03:03;;;;;;;8.15;7.45;;;;;;;;;;5039225;28;20764;-83
2024/03/04 04:05:29;;;;;;;7.80;7.10;;;;;;;;;;5041474;28;20375;-82
2024/03/04 04:07:55;;;;;;;7.43;6.82;;;;;;;;;;5039941;28;20379;-82
2024/03/04 04:10:21;;;;;;;7.37;6.67;;;;;;;;;;5039285;28;20444;-83
2024/03/04 04:12:47;;;;;;;7.47;6.78;;;;;;;;;;5039275;28;20753;-83
2024/03/04 04:15:13;;;;;;;7.30;6.65;;;;;;;;;;5039208;28;20411;-83
2024/03/04 04:17:39;;;;;;;7.53;6.83;;;;;;;;;;5039957;28;20379;-83
2024/03/04 04:20:07;;;;;;;7.70;7.00;;;;;;;;;;5039240;28;20884;-83
2024/03/04 04:22:33;;;;;;;8.37;7.63;;;;;;;;;;5053801;28;20416;-82
2024/03/04 04:25:00;;;;;;;8.43;7.57;;;;;;;;;;5058859;28;20708;-83
2024/03/04 04:27:26;;;;;;;8.20;7.32;;;;;;;;;;5059205;28;20376;-82
2024/03/04 04:29:52;;;;;;;7.78;7.03;;;;;;;;;;5058820;28;20376;-83
2024/03/04 04:32:18;;;;;;;7.73;7.03;;;;;;;;;;5058492;28;20715;-83
2024/03/04 04:34:44;;;;;;;7.97;7.20;;;;;;;;;;5058215;28;20386;-82
2024/03/04 04:37:10;;;;;;;7.35;6.75;;;;;;;;;;5058187;28;20430;-83
2024/03/04 04:39:40;;;;;;;8.13;7.35;;;;;;;;;;5057633;28;20442;-83
2024/03/04 04:42:06;;;;;;;7.20;6.57;;;;;;;;;;5057998;28;20408;-83
2024/03/04 04:44:33;;;;;;;7.10;6.50;;;;;;;;;;5057753;28;20378;-82
2024/03/04 04:46:59;;;;;;;7.28;6.68;;;;;;;;;;5058305;28;20728;-83
2024/03/04 04:49:25;;;;;;;7.40;6.80;;;;;;;;;;5057873;28;20405;-83
2024/03/04 04:51:51;;;;;;;7.65;6.95;;;;;;;;;;5057735;28;21129;-83
2024/03/04 04:54:17;;;;;;;7.57;6.88;;;;;;;;;;5056647;28;20393;-82
2024/03/04 04:56:44;;;;;;;7.88;7.18;;;;;;;;;;5057699;28;20807;-82
2024/03/04 04:59:10;;;;;;;7.65;6.95;;;;;;;;;;5058015;28;20449;-83
2024/03/04 05:01:36;;;;;;;7.70;6.90;;;;;;;;;;5057486;28;20413;-83
2024/03/04 05:04:02;;;;;;;7.93;7.13;;;;;;;;;;5058426;28;20705;-83
2024/03/04 05:06:28;;;;;;;8.23;7.30;;;;;;;;;;5057819;28;20385;-83
2024/03/04 05:08:54;;;;;;;7.40;6.80;;;;;;;;;;5057472;28;20384;-83
2024/03/04 05:11:24;;;;;;;7.13;6.50;;;;;;;;;;5057859;28;20743;-83
2024/03/04 05:13:50;;;;;;;7.25;6.65;;;;;;;;;;5058274;28;20420;-83
2024/03/04 05:16:16;;;;;;;6.82;6.13;;;;;;;;;;5057745;28;20389;-82
2024/03/04 05:18:42;;;;;;;7.47;6.78;;;;;;;;;;5057600;28;20394;-83
2024/03/04 05:21:09;;;;;;;6.82;6.22;;;;;;;;;;5057696;28;20397;-83
2024/03/04 05:23:35;;;;;;;6.80;6.20;;;;;;;;;;5057177;28;20385;-83
2024/03/04 05:26:01;;;;;;;7.13;6.53;;;;;;;;;;5057621;28;20387;-83
2024/03/04 05:28:27;;;;;;;6.65;6.05;;;;;;;;;;5058171;28;20448;-83
2024/03/04 05:30:54;;;;;;;6.95;6.25;;;;;;;;;;5058061;28;20389;-83
2024/03/04 05:33:20;;;;;;;7.18;6.50;;;;;;;;;;5057847;28;20736;-83
2024/03/04 05:35:46;;;;;;;6.90;6.20;;;;;;;;;;5057870;28;20391;-83
2024/03/04 05:38:12;;;;;;;6.80;6.13;;;;;;;;;;5059188;28;20385;-83
2024/03/04 05:40:38;;;;;;;6.50;5.90;;;;;;;;;;5059613;28;20457;-83
2024/03/04 05:43:05;;;;;;;6.75;6.15;;;;;;;;;;5057385;28;20392;-83
2024/03/04 05:45:31;;;;;;;7.30;6.60;;;;;;;;;;5057187;28;20388;-83
2024/03/04 05:47:57;;;;;;;7.22;6.53;;;;;;;;;;5058926;28;20428;-83
2024/03/04 05:50:24;;;;;;;7.40;6.65;;;;;;;;;;5059009;28;20386;-83
2024/03/04 05:52:50;;;;;;;8.60;7.22;;;;;;;;;;5057826;28;20454;-83
2024/03/04 05:55:16;;;;;;;7.85;7.15;;;;;;;;;;5058476;28;20720;-83
2024/03/04 05:57:46;;;;;;;7.28;6.65;;;;;;;;;;5058347;28;20417;-83
2024/03/04 06:00:14;;;;;;;8.10;7.10;;;;;;;;;;5058850;28;20389;-83
2024/03/04 06:02:40;;;;;;;7.57;6.88;;;;;;;;;;5058071;28;20497;-83
2024/03/04 06:05:07;;;;;;;7.90;7.10;;;;;;;;;;5058226;28;20381;-82
2024/03/04 06:07:33;;;;;;;8.20;7.40;;;;;;;;;;5057658;28;20397;-82
2024/03/04 06:09:59;;;;;;;7.60;6.90;;;;;;;;;;5058181;28;20374;-83
2024/03/04 06:12:25;;;;;;;7.32;6.63;;;;;;;;;;5058399;28;20434;-83
2024/03/04 06:14:51;;;;;;;6.82;6.20;;;;;;;;;;5058735;28;20752;-83
2024/03/04 06:17:17;;;;;;;6.00;5.40;;;;;;;;;;5057356;28;20381;-83
2024/03/04 06:19:43;;;;;;;5.85;5.35;;;;;;;;;;5050165;28;20394;-83
2024/03/04 06:22:09;;;;;;;5.90;5.30;;;;;;;;;;5036755;28;20500;-83
2024/03/04 06:24:35;;;;;;;6.07;5.47;;;;;;;;;;5036849;28;20463;-83
2024/03/04 06:27:06;;;;;;;6.70;6.10;;;;;;;;;;5036927;28;21001;-83
2024/03/04 06:29:33;;;;;;;6.00;5.40;;;;;;;;;;5037909;28;20780;-83
2024/03/04 06:31:59;;;;;;;6.03;5.50;;;;;;;;;;5037470;28;20887;-83
2024/03/04 06:34:26;;;;;;;6.57;5.87;;;;;;;;;;5037213;28;20792;-83
2024/03/04 06:36:52;;;;;;;6.60;6.00;;;;;;;;;;5039832;28;20381;-83
2024/03/04 06:39:20;;;;;;;7.13;6.18;;;;;;;;;;5058733;28;20388;-83
2024/03/04 06:41:49;;;;;;;6.97;6.32;;;;;;;;;;5057692;28;21089;-83
2024/03/04 06:44:15;;;;;;;6.30;5.80;;;;;;;;;;5057755;28;20377;-83
2024/03/04 06:46:41;;;;;;;6.45;5.85;;;;;;;;;;5058916;28;20712;-83
2024/03/04 06:49:07;;;;;;;6.30;5.70;;;;;;;;;;5059560;28;20409;-83
2024/03/04 06:51:36;;;;;;;6.30;5.80;;;;;;;;;;5059355;28;20386;-84
2024/03/04 06:54:04;;;;;;;6.15;5.57;;;;;;;;;;5060245;28;20439;-83
2024/03/04 06:56:30;;;;;;;6.20;5.63;;;;;;;;;;5057276;28;20405;-83
2024/03/04 06:58:57;;;;;;;7.18;6.47;;;;;;;;;;5060780;28;20374;-84
2024/03/04 07:01:23;;;;;;;6.15;5.50;;;;;;;;;;5056643;28;20409;-83
2024/03/04 07:03:49;;;;;;;5.78;5.28;;;;;;;;;;5060841;28;20392;-83
2024/03/04 07:06:15;;;;;;;6.10;5.50;;;;;;;;;;5061562;28;20380;-83
2024/03/04 07:08:41;;;;;;;6.03;5.43;;;;;;;;;;5060893;28;20374;-84
2024/03/04 07:11:09;;;;;;;5.50;5.05;;;;;;;;;;5060631;28;20393;-83
2024/03/04 07:13:35;;;;;;;5.43;4.97;;;;;;;;;;5060687;28;20411;-85
2024/03/04 07:16:02;;;;;;;6.25;5.65;;;;;;;;;;5059475;28;20401;-84
2024/03/04 07:18:31;;;;;;;5.15;4.75;;;;;;;;;;5061201;28;20385;-83
2024/03/04 07:20:58;;;;;;;5.25;4.75;;;;;;;;;;5062001;28;20433;-83
2024/03/04 07:23:24;;;;;;;5.60;5.05;;;;;;;;;;5063424;28;20366;-83
2024/03/04 07:25:50;;;;;;;4.93;4.53;;;;;;;;;;5062356;28;20420;-83
2024/03/04 07:28:16;;;;;;;5.07;4.68;;;;;;;;;;5060237;28;20831;-83
2024/03/04 07:30:42;;;;;;;5.18;4.78;;;;;;;;;;5064961;28;20369;-84
2024/03/04 07:33:11;;;;;;;6.43;4.90;;;;;;;;;;5063269;28;20946;-83
2024/03/04 07:35:37;;;;;;;5.67;5.17;;;;;;;;;;5062387;28;20396;-84
2024/03/04 07:38:03;;;;;;;5.38;4.93;;;;;;;;;;5059184;28;20471;-84
2024/03/04 07:40:29;;;;;;;5.30;4.80;;;;;;;;;;5041086;28;20383;-84
2024/03/04 07:42:56;;;;;;;5.55;5.05;;;;;;;;;;5041954;28;20832;-84
2024/03/04 07:45:22;;;;;;;5.40;4.90;;;;;;;;;;5039915;28;20425;-83
2024/03/04 07:47:48;;;;;;;5.32;4.82;;;;;;;;;;5040687;28;20383;-83
2024/03/04 07:50:14;;;;;;;4.88;4.47;;;;;;;;;;5037557;28;20403;-83
2024/03/04 07:52:40;;;;;;;5.30;4.88;;;;;;;;;;5038032;28;20711;-83
2024/03/04 07:55:11;;;;;;;5.53;5.03;;;;;;;;;;5038201;28;20415;-82
2024/03/04 07:57:39;;;;;;;5.28;4.82;;;;;;;;;;5036698;28;20389;-82
2024/03/04 08:00:06;;;;;;;5.20;4.70;;;;;;;;;;5036934;28;20383;-82
2024/03/04 08:02:32;;;;;;;5.22;4.80;;;;;;;;;;5036628;28;20792;-82
2024/03/04 08:04:58;;;;;;;5.38;4.65;;;;;;;;;;5036629;28;20387;-82
2024/03/04 08:07:24;;;;;;;5.22;4.72;;;;;;;;;;5037485;28;20426;-81
2024/03/04 08:09:50;;;;;;;4.75;4.35;;;;;;;;;;5036645;28;20798;-82
2024/03/04 08:12:16;;;;;;;5.05;4.55;;;;;;;;;;5036563;28;20383;-82
2024/03/04 08:14:42;;;;;;;5.47;4.97;;;;;;;;;;5034873;28;20398;-82
2024/03/04 08:17:10;;;;;;;5.40;4.82;;;;;;;;;;5036949;28;20387;-82
2024/03/04 08:19:36;;;;;;;5.30;4.80;;;;;;;;;;5037196;28;20386;-82
2024/03/04 08:22:03;;;;;;;5.00;4.60;;;;;;;;;;5037159;28;20403;-82
2024/03/04 08:24:29;;;;;;;5.47;4.97;;;;;;;;;;5036393;28;20399;-82
2024/03/04 08:26:55;;;;;;;5.10;4.68;;;;;;;;;;5036117;28;20786;-82
2024/03/04 08:29:21;;;;;;;5.88;4.70;;;;;;;;;;5047532;28;20381;-82
2024/03/04 08:31:47;;;;;;;6.22;5.22;;;;;;;;;;5055690;28;20381;-82
2024/03/04 08:34:14;;;;;;;5.65;5.15;;;;;;;;;;5055511;28;20384;-82
2024/03/04 08:36:40;;;;;;;5.67;5.17;;;;;;;;;;5055839;28;20388;-82
2024/03/04 08:39:06;;;;;;;5.45;4.93;;;;;;;;;;5055483;28;20841;-83
2024/03/04 08:41:32;;;;;;;6.05;5.45;;;;;;;;;;5055804;28;20401;-82
2024/03/04 08:43:58;;;;;;;5.77;5.27;;;;;;;;;;5055498;28;20931;-83
2024/03/04 08:46:25;;;;;;;6.28;5.68;;;;;;;;;;5055363;28;20384;-82
2024/03/04 08:48:51;;;;;;;6.57;5.95;;;;;;;;;;5055124;28;20405;-82
2024/03/04 08:51:20;;;;;;;6.80;6.20;;;;;;;;;;5055362;28;20373;-82
2024/03/04 08:53:46;;;;;;;6.85;6.15;;;;;;;;;;5055029;28;20728;-82
2024/03/04 08:56:12;;;;;;;7.05;6.35;;;;;;;;;;5050875;28;20420;-83
2024/03/04 08:58:39;;;;;;;6.97;6.28;;;;;;;;;;5052162;28;20404;-82
2024/03/04 09:01:07;;;;;;;7.60;6.90;;;;;;;;;;5055079;28;20410;-83
2024/03/04 09:03:33;;;;;;;8.15;6.90;;;;;;;;;;5054731;28;20373;-82
2024/03/04 09:05:59;;;;;;;8.18;7.38;;;;;;;;;;5053595;28;20727;-82
2024/03/04 09:08:25;;;;;;;8.38;7.57;;;;;;;;;;5054221;28;20385;-82
2024/03/04 09:10:53;;;;;;;7.90;7.13;;;;;;;;;;5053230;28;20393;-82
2024/03/04 09:13:19;;;;;;;7.53;6.83;;;;;;;;;;5053746;28;20389;-82
2024/03/04 09:15:45;;;;;;;7.70;6.95;;;;;;;;;;5054000;28;20385;-82
2024/03/04 09:18:12;;;;;;;7.95;7.15;;;;;;;;;;5054322;28;20386;-82
2024/03/04 09:20:39;;;;;;;8.13;7.32;;;;;;;;;;5054769;28;20417;-83
2024/03/04 09:23:05;;;;;;;8.63;7.72;;;;;;;;;;5054822;28;20447;-83
2024/03/04 09:25:31;;;;;;;8.73;7.93;;;;;;;;;;5054451;28;20766;-81
2024/03/04 09:27:57;;;;;;;8.23;7.43;;;;;;;;;;5054363;28;20413;-83
2024/03/04 09:30:25;;;;;;;8.48;7.72;;;;;;;;;;5054377;28;20381;-83
2024/03/04 09:32:51;;;;;;;7.22;6.63;;;;;;;;;;5043514;28;20375;-83
2024/03/04 09:35:17;;;;;;;8.25;7.03;;;;;;;;;;5053214;28;20391;-83
2024/03/04 09:37:44;;;;;;;7.95;7.22;;;;;;;;;;5054181;28;20385;-82
2024/03/04 09:40:11;;;;;;;8.00;7.20;;;;;;;;;;5054076;28;20380;-82
2024/03/04 09:42:38;;;;;;;10.65;7.85;;;;;;;;;;5053825;28;20509;-82
2024/03/04 09:45:04;;;;;;;8.80;7.90;;;;;;;;;;5054091;28;20393;-82
2024/03/04 09:47:30;;;;;;;8.65;7.85;;;;;;;;;;5053899;28;20400;-82
2024/03/04 09:49:57;;;;;;;8.27;7.47;;;;;;;;;;5053756;28;20492;-82
2024/03/04 09:52:23;;;;;;;8.68;7.82;;;;;;;;;;5053671;28;20757;-82
2024/03/04 09:54:50;;;;;;;8.48;7.68;;;;;;;;;;5053765;28;20720;-82
2024/03/04 09:57:16;;;;;;;9.48;8.57;;;;;;;;;;5053608;28;20851;-82
2024/03/04 09:59:42;;;;;;;8.13;7.43;;;;;;;;;;5053614;28;20447;-83
2024/03/04 10:02:10;;;;;;;8.25;7.45;;;;;;;;;;5053427;28;20413;-83
2024/03/04 10:04:39;;;;;;;8.65;7.95;;;;;;;;;;5053824;28;20389;-83
2024/03/04 10:07:05;;;;;;;8.63;7.82;;;;;;;;;;5051788;28;20397;-82
2024/03/04 10:09:31;;;;;;;8.98;8.05;;;;;;;;;;5053639;28;20385;-82
2024/03/04 10:11:58;;;;;;;7.97;7.25;;;;;;;;;;5053722;28;20464;-82
2024/03/04 10:14:24;;;;;;;7.43;6.82;;;;;;;;;;5053924;28;20382;-82
2024/03/04 10:16:51;;;;;;;8.13;6.82;;;;;;;;;;5053740;28;20389;-82
2024/03/04 10:19:20;;;;;;;8.27;7.20;;;;;;;;;;5053626;28;20383;-82
2024/03/04 10:21:46;;;;;;;9.70;7.43;;;;;;;;;;5048587;28;20459;-82
2024/03/04 10:24:13;;;;;;;7.75;6.97;;;;;;;;;;5048045;28;20381;-82
2024/03/04 10:26:40;;;;;;;7.50;6.80;;;;;;;;;;5053405;28;20370;-82
2024/03/04 10:29:07;;;;;;;7.55;6.78;;;;;;;;;;5053243;28;20792;-82
2024/03/04 10:31:36;;;;;;;8.48;7.68;;;;;;;;;;5053457;28;20392;-82
2024/03/04 10:34:02;;;;;;;9.57;7.60;;;;;;;;;;5053416;28;20472;-82
2024/03/04 10:36:31;;;;;;;9.25;7.25;;;;;;;;;;5052719;28;20436;-82
2024/03/04 10:39:00;;;;;;;7.72;7.03;;;;;;;;;;5051759;28;20393;-82
2024/03/04 10:41:30;;;;;;;8.95;7.60;;;;;;;;;;5052077;28;20417;-82
2024/03/04 10:43:56;;;;;;;8.23;7.43;;;;;;;;;;5053014;28;20374;-82
2024/03/04 10:46:23;;;;;;;8.48;7.57;;;;;;;;;;5053378;28;20381;-82
2024/03/04 10:48:49;;;;;;;7.45;6.75;;;;;;;;;;5052806;28;20397;-82
2024/03/04 10:51:17;;;;;;;7.85;7.13;;;;;;;;;;5052759;28;20381;-82
2024/03/04 10:53:44;;;;;;;8.40;7.50;;;;;;;;;;5053045;28;20474;-83
2024/03/04 10:56:14;;;;;;;7.68;6.90;;;;;;;;;;5051976;28;20426;-83
2024/03/04 10:58:49;;;;;;;7.57;6.88;;;;;;;;;;5053237;28;20393;-81
2024/03/04 11:01:19;;;;;;;7.05;6.35;;;;;;;;;;5053101;28;20435;-81
2024/03/04 11:03:51;;;;;;;7.10;6.50;;;;;;;;;;5052920;28;20384;-82
2024/03/04 11:06:21;;;;;;;7.25;6.65;;;;;;;;;;5052889;28;20416;-82
2024/03/04 11:08:53;;;;;;;7.50;6.63;;;;;;;;;;5053554;28;20382;-82
2024/03/04 11:11:23;;;;;;;7.82;6.93;;;;;;;;;;5053243;28;20832;-81
2024/03/04 11:14:19;;;;;;;7.72;6.93;;;;;;;;;;5053141;28;20400;-82
2024/03/04 11:17:09;;;;;;;7.87;7.17;;;;;;;;;;5048072;28;20439;-82
2024/03/04 11:19:47;;;;;;;8.23;7.43;;;;;;;;;;5053046;28;20408;-82
2024/03/04 11:22:14;;;;;;;8.05;7.25;;;;;;;;;;5053859;28;20894;-82
2024/03/04 11:24:40;;;;;;;7.80;7.10;;;;;;;;;;5052961;28;20855;-82
2024/03/04 11:27:07;;;;;;;8.63;7.82;;;;;;;;;;5052556;28;20382;-81
2024/03/04 11:29:34;;;;;;;7.80;7.10;;;;;;;;;;5052600;28;20377;-82
2024/03/04 11:32:04;;;;;;;7.60;6.90;;;;;;;;;;5053180;28;20393;-82
2024/03/04 11:34:30;;;;;;;8.82;8.02;;;;;;;;;;5053347;28;20393;-82
2024/03/04 11:36:58;;;;;;;9.87;8.87;;;;;;;;;;5050244;28;20385;-82
2024/03/04 11:39:25;;;;;;;9.45;8.23;;;;;;;;;;5046320;28;20447;-82
2024/03/04 11:41:52;;;;;;;9.13;8.32;;;;;;;;;;5053877;28;20401;-82
2024/03/04 11:44:18;;;;;;;9.65;8.75;;;;;;;;;;5052972;28;20794;-82
2024/03/04 11:46:45;;;;;;;9.23;8.32;;;;;;;;;;5053020;28;20378;-82
2024/03/04 11:49:27;;;;;;;9.65;8.48;;;;;;;;;;5054956;28;20413;-82
2024/03/04 11:52:02;;;;;;;8.90;7.70;;;;;;;;;;5056721;28;20377;-82
2024/03/04 11:54:34;;;;;;;9.33;8.03;;;;;;;;;;5063807;28;20956;-82
2024/03/04 11:57:00;;;;;;;8.40;7.70;;;;;;;;;;5056559;28;20412;-82
2024/03/04 11:59:27;;;;;;;8.88;7.97;;;;;;;;;;5056283;28;20381;-82
2024/03/04 12:01:53;;;;;;;9.45;8.00;;;;;;;;;;5055959;28;20401;-82
2024/03/04 12:04:22;;;;;;;8.80;7.97;;;;;;;;;;5055927;28;20373;-82
2024/03/04 12:06:48;;;;;;;8.43;7.63;;;;;;;;;;5056149;28;20381;-82
2024/03/04 12:09:18;;;;;;;8.80;7.80;;;;;;;;;;5056914;28;20377;-82
2024/03/04 12:11:47;;;;;;;11.20;9.67;;;;;;;;;;5056294;28;20379;-82
2024/03/04 12:14:13;;;;;;;11.80;10.18;;;;;;;;;;5055856;28;20392;-82
2024/03/04 12:16:39;;;;;;;11.63;10.43;;;;;;;;;;5055766;28;20384;-83
2024/03/04 12:19:08;;;;;;;9.60;8.73;;;;;;;;;;5056282;28;20393;-83
2024/03/04 12:21:35;;;;;;;8.40;7.70;;;;;;;;;;5056098;28;20397;-82
2024/03/04 12:24:01;;;;;;;8.02;7.32;;;;;;;;;;5056326;28;20379;-83
2024/03/04 12:26:27;;;;;;;8.65;7.88;;;;;;;;;;5055950;28;20385;-82
2024/03/04 12:29:04;;;;;;;8.80;7.90;;;;;;;;;;5054890;28;20382;-83
2024/03/04 12:31:31;;;;;;;10.25;9.15;;;;;;;;;;5055625;28;20384;-82
2024/03/04 12:33:57;;;;;;;9.18;8.27;;;;;;;;;;5055636;28;20871;-82
2024/03/04 12:36:24;;;;;;;9.23;7.72;;;;;;;;;;5062834;28;20386;-83
2024/03/04 12:38:53;;;;;;;8.82;7.97;;;;;;;;;;5062195;28;20396;-82
2024/03/04 12:41:20;;;;;;;8.17;7.37;;;;;;;;;;5060106;28;20485;-83
2024/03/04 12:43:48;;;;;;;8.85;7.43;;;;;;;;;;5059232;28;20381;-83
2024/03/04 12:46:21;;;;;;;9.20;8.35;;;;;;;;;;5060078;28;20408;-83
2024/03/04 12:48:47;;;;;;;10.80;8.35;;;;;;;;;;5059598;28;20433;-83
2024/03/04 12:51:15;;;;;;;8.75;7.85;;;;;;;;;;5060866;28;20397;-83
2024/03/04 12:53:41;;;;;;;8.82;7.93;;;;;;;;;;5059838;28;20413;-83
2024/03/04 12:56:07;;;;;;;10.37;8.23;;;;;;;;;;5061433;28;20462;-83
2024/03/04 12:58:33;;;;;;;8.90;8.00;;;;;;;;;;5060077;28;20508;-83
2024/03/04 13:01:02;;;;;;;9.03;8.23;;;;;;;;;;5059142;28;20509;-82
2024/03/04 13:03:28;;;;;;;9.75;8.75;;;;;;;;;;5058964;28;20377;-83
2024/03/04 13:05:55;;;;;;;9.70;8.70;;;;;;;;;;5059188;28;20374;-82
2024/03/04 13:08:21;;;;;;;8.80;8.00;;;;;;;;;;5058098;28;20820;-83
2024/03/04 13:10:47;;;;;;;8.38;7.57;;;;;;;;;;5058807;28;20396;-81
2024/03/04 13:13:13;;;;;;;9.40;8.50;;;;;;;;;;5054612;28;20385;-80
2024/03/04 13:15:44;;;;;;;9.57;8.52;;;;;;;;;;5055911;28;20373;-80
2024/03/04 13:18:11;;;;;;;8.47;7.67;;;;;;;;;;5056366;28;20370;-81
2024/03/04 13:20:37;;;;;;;9.18;8.10;;;;;;;;;;5056278;28;20404;-80
2024/03/04 13:23:03;;;;;;;8.60;7.80;;;;;;;;;;5055957;28;20406;-80
2024/03/04 13:25:30;;;;;;;8.00;7.30;;;;;;;;;;5054763;28;20455;-80
2024/03/04 13:27:56;;;;;;;8.32;7.53;;;;;;;;;;5055989;28;20456;-80
2024/03/04 13:30:22;;;;;;;8.30;7.47;;;;;;;;;;5055786;28;20412;-80
2024/03/04 13:32:48;;;;;;;8.07;7.38;;;;;;;;;;5055661;28;20377;-80
2024/03/04 13:35:14;;;;;;;8.57;7.68;;;;;;;;;;5055824;28;20377;-80
2024/03/04 13:37:40;;;;;;;8.65;7.82;;;;;;;;;;5055056;28;20374;-80
2024/03/04 13:40:07;;;;;;;7.97;7.18;;;;;;;;;;5054957;28;20403;-80
2024/03/04 13:42:33;;;;;;;8.23;7.40;;;;;;;;;;5055064;28;20726;-80
2024/03/04 13:44:59;;;;;;;7.93;7.13;;;;;;;;;;5053772;28;20486;-81
2024/03/04 13:47:25;;;;;;;8.55;7.72;;;;;;;;;;5055418;28;20378;-80
2024/03/04 13:49:51;;;;;;;8.18;7.38;;;;;;;;;;5054463;28;20771;-81
2024/03/04 13:52:17;;;;;;;8.45;7.68;;;;;;;;;;5055065;28;20392;-81
2024/03/04 13:54:43;;;;;;;8.63;7.83;;;;;;;;;;5054863;28;20397;-81
2024/03/04 13:57:09;;;;;;;7.53;6.82;;;;;;;;;;5055234;28;20458;-81
2024/03/04 13:59:35;;;;;;;8.10;7.35;;;;;;;;;;5055398;28;20411;-81
2024/03/04 14:02:02;;;;;;;7.50;6.80;;;;;;;;;;5055067;28;20405;-81
2024/03/04 14:04:28;;;;;;;8.00;7.20;;;;;;;;;;5055371;28;20848;-81
2024/03/04 14:06:54;;;;;;;8.80;7.65;;;;;;;;;;5054585;28;20377;-81
2024/03/04 14:09:20;;;;;;;8.27;7.35;;;;;;;;;;5054992;28;20381;-82
2024/03/04 14:11:46;;;;;;;8.63;7.78;;;;;;;;;;5051369;28;20382;-81
2024/03/04 14:14:12;;;;;;;8.20;7.40;;;;;;;;;;5051000;28;20866;-81
2024/03/04 14:16:39;;;;;;;9.52;7.50;;;;;;;;;;5054953;28;20736;-81
2024/03/04 14:19:05;;;;;;;8.00;7.23;;;;;;;;;;5054686;28;20732;-81
2024/03/04 14:21:31;;;;;;;8.25;7.45;;;;;;;;;;5055022;28;20891;-82
2024/03/04 14:23:57;;;;;;;7.60;6.90;;;;;;;;;;5055127;28;20393;-81
2024/03/04 14:26:23;;;;;;;8.00;7.30;;;;;;;;;;5054951;28;20427;-81
2024/03/04 14:28:49;;;;;;;8.30;7.50;;;;;;;;;;5054995;28;20382;-82
2024/03/04 14:31:18;;;;;;;8.57;7.67;;;;;;;;;;5055053;28;20382;-81
2024/03/04 14:33:50;;;;;;;9.40;8.40;;;;;;;;;;5055254;28;20381;-81
2024/03/04 14:36:17;;;;;;;9.43;8.45;;;;;;;;;;5054756;28;20434;-81
2024/03/04 14:38:43;;;;;;;9.38;8.40;;;;;;;;;;5054084;28;20396;-81
2024/03/04 14:41:14;;;;;;;10.25;9.25;;;;;;;;;;5054996;28;20875;-81